createdAt,value
2022-07-27T02:58:56.222Z,0.01
2022-07-27T03:06:37.606Z,0.02
2022-07-27T03:11:37.678Z,0.03
2022-07-27T03:14:17.603Z,0.05
2022-07-27T03:16:43.674Z,0.07
2022-07-27T03:18:55.419Z,0.09
2022-07-27T03:21:55.737Z,0.15
2022-07-27T03:24:42.292Z,0.22
2022-07-27T03:27:14.654Z,0.3
2022-07-27T03:29:32.845Z,0.42
2022-07-27T03:31:36.535Z,0.52
2022-07-27T03:34:29.267Z,0.7
2022-07-27T03:37:07.789Z,0.96
2022-07-27T03:39:31.901Z,1.22
2022-07-27T03:41:41.918Z,1.47
2022-07-27T03:44:40.795Z,1.99
2022-07-27T03:47:25.348Z,2.51
2022-07-27T03:49:55.839Z,2.91
2022-07-27T03:52:17.320Z,3.47
2022-07-27T03:54:13.977Z,4.15
2022-07-27T03:57:05.044Z,5.22
2022-07-27T03:59:41.758Z,6.93
2022-07-27T04:02:04.251Z,8.69
2022-07-27T04:04:12.833Z,10.43
2022-07-27T04:07:10.131Z,12.5
2022-07-27T04:09:52.601Z,14.26
2022-07-27T04:12:21.328Z,17.07
2022-07-27T04:14:35.945Z,19.38
2022-07-27T04:16:36.297Z,21.29
2022-07-27T04:19:25.130Z,22.42
2022-07-27T04:22:00.101Z,20.77
2022-07-27T04:24:20.515Z,18.28
2022-07-27T04:26:26.930Z,18.65
2022-07-27T04:29:22.803Z,17.31
2022-07-27T04:32:03.604Z,17.23
2022-07-27T04:34:30.431Z,16.65
2022-07-27T04:36:43.196Z,16.45
2022-07-27T04:38:41.711Z,17.09
2022-07-27T04:41:30.201Z,18.01
2022-07-27T04:44:01.811Z,21.44
2022-07-27T04:46:20.668Z,24.4
2022-07-27T04:48:25.245Z,26.99
2022-07-27T04:51:18.664Z,31.94
2022-07-27T04:53:58.156Z,37.68
2022-07-27T04:56:23.239Z,44.32
2022-07-27T04:58:33.577Z,49.86
2022-07-27T05:01:35.216Z,59.44
2022-07-27T05:04:18.989Z,73.58
2022-07-27T05:06:50.200Z,73.94
2022-07-27T05:09:07.037Z,75.48
2022-07-27T05:11:09.911Z,83.4
2022-07-27T05:14:01.714Z,88.16
2022-07-27T05:16:39.201Z,87.2
2022-07-27T05:19:02.454Z,94.2
2022-07-27T05:21:11.501Z,105.16
2022-07-27T05:24:09.395Z,120.64
2022-07-27T05:26:53.133Z,119.44
2022-07-27T05:29:22.509Z,147.36
2022-07-27T05:31:37.720Z,153.36
2022-07-27T05:33:38.746Z,144.88
2022-07-27T05:36:28.635Z,165.6
2022-07-27T05:39:04.200Z,172
2022-07-27T05:41:25.569Z,192.6
2022-07-27T05:43:32.750Z,188.6
2022-07-27T05:46:32.486Z,202.4
2022-07-27T05:49:10.685Z,202.2
2022-07-27T05:51:38.056Z,207.7
2022-07-27T05:53:51.522Z,212.3
2022-07-27T05:55:57.868Z,218.7
2022-07-27T05:58:38.957Z,226.4
2022-07-27T06:01:13.058Z,218.9
2022-07-27T06:03:32.755Z,206.5
2022-07-27T06:05:38.253Z,209.7
2022-07-27T06:08:32.739Z,241
2022-07-27T06:11:12.888Z,278.3
2022-07-27T06:13:42.057Z,302.4
2022-07-27T06:15:50.369Z,409.4
2022-07-27T06:18:50.940Z,387.5
2022-07-27T06:21:37.188Z,386.7
2022-07-27T06:24:09.357Z,471.2
2022-07-27T06:26:27.269Z,500.1
2022-07-27T06:28:30.774Z,480.8
2022-07-27T06:31:23.483Z,383.8
2022-07-27T06:34:01.939Z,366.2
2022-07-27T06:36:25.815Z,381.6
2022-07-27T06:38:35.773Z,382.4
2022-07-27T06:41:34.689Z,408.3
2022-07-27T06:44:19.228Z,453.2
2022-07-27T06:46:49.621Z,558.4
2022-07-27T06:49:05.963Z,452.8
2022-07-27T06:51:07.774Z,392.3
2022-07-27T06:53:58.585Z,363.6
2022-07-27T06:56:35.295Z,541.1
2022-07-27T06:58:57.732Z,422.7
2022-07-27T07:01:05.871Z,526.8
2022-07-27T07:04:03.113Z,404.8
2022-07-27T07:06:45.893Z,378.2
2022-07-27T07:09:14.776Z,580.4
2022-07-27T07:11:28.680Z,507.5
2022-07-27T07:13:28.932Z,574.2
2022-07-27T07:16:18.058Z,554.4
2022-07-27T07:18:52.817Z,353.7
2022-07-27T07:21:13.500Z,544.3
2022-07-27T07:23:19.919Z,488.8
2022-07-27T07:26:15.295Z,336.8
2022-07-27T07:28:56.364Z,491.6
2022-07-27T07:31:23.254Z,491.3
2022-07-27T07:33:35.786Z,497.7
2022-07-27T07:35:34.214Z,469.9
2022-07-27T07:38:21.632Z,465.7
2022-07-27T07:40:54.583Z,465.1
2022-07-27T07:43:13.196Z,382.5
2022-07-27T07:45:17.768Z,469.2
2022-07-27T07:48:11.145Z,462.7
2022-07-27T07:50:51.765Z,466.7
2022-07-27T07:53:15.496Z,453.2
2022-07-27T07:55:26.329Z,457.6
2022-07-27T07:58:26.002Z,463.5
2022-07-27T08:01:11.641Z,465.6
2022-07-27T08:03:46.187Z,460.9
2022-07-27T08:06:00.068Z,472.6
2022-07-27T08:08:03.080Z,474.5
2022-07-27T08:10:54.975Z,476.8
2022-07-27T08:13:32.368Z,477.6
2022-07-27T08:15:55.571Z,483.3
2022-07-27T08:18:04.748Z,489.9
2022-07-27T08:21:02.328Z,495
2022-07-27T08:23:45.953Z,497.7
2022-07-27T08:26:15.486Z,499.3
2022-07-27T08:28:35.617Z,504
2022-07-27T08:30:32.286Z,513.9
2022-07-27T08:33:21.750Z,524
2022-07-27T08:35:57.505Z,529.4
2022-07-27T08:38:18.947Z,537.1
2022-07-27T08:40:41.647Z,537.9
2022-07-27T08:43:25.074Z,544
2022-07-27T08:46:04.780Z,557.1
2022-07-27T08:48:32.404Z,567.5
2022-07-27T08:50:45.830Z,571.3
2022-07-27T08:52:45.267Z,588.1
2022-07-27T08:55:33.428Z,591.8
2022-07-27T08:58:07.131Z,345.1
2022-07-27T09:00:26.856Z,300.9
2022-07-27T09:02:32.270Z,636.4
2022-07-27T09:05:27.642Z,652.3
2022-07-27T09:08:06.995Z,648
2022-07-27T09:10:32.884Z,688.9
2022-07-27T09:12:44.612Z,675.8
2022-07-27T09:16:12.748Z,681.2
2022-07-27T09:18:31.518Z,703.3
2022-07-27T09:21:03.466Z,708.8
2022-07-27T09:23:21.473Z,724.4
2022-07-27T09:25:45.192Z,722.8
2022-07-27T09:28:17.571Z,741.4
2022-07-27T09:30:55.961Z,739.5
2022-07-27T09:33:20.008Z,782
2022-07-27T09:35:29.767Z,744.9
2022-07-27T09:38:28.646Z,758.4
2022-07-27T09:41:13.535Z,770.5
2022-07-27T09:45:59.570Z,766.7
2022-07-27T09:48:01.417Z,828.1
2022-07-27T09:51:01.686Z,587.6
2022-07-27T09:53:42.105Z,852.8
2022-07-27T09:55:53.337Z,739.8
2022-07-27T09:57:59.032Z,817.6
2022-07-27T10:00:56.033Z,834.8
2022-07-27T10:03:38.999Z,841.9
2022-07-27T10:06:07.573Z,796.1
2022-07-27T10:08:21.886Z,899.8
2022-07-27T10:10:22.089Z,892.8
2022-07-27T10:13:11.215Z,1001.9
2022-07-27T10:15:26.723Z,944.6
2022-07-27T10:17:27.968Z,979.8
2022-07-27T10:20:18.078Z,1026.5
2022-07-27T10:22:54.039Z,444.6
2022-07-27T10:25:15.649Z,802.8
2022-07-27T10:27:22.956Z,987.5
2022-07-27T10:30:23.961Z,1023.6
2022-07-27T10:33:01.436Z,990
2022-07-27T10:35:29.239Z,935
2022-07-27T10:37:42.999Z,925.7
2022-07-27T10:39:42.469Z,924.4
2022-07-27T10:42:30.741Z,968.6
2022-07-27T10:45:04.728Z,970.5
2022-07-27T10:47:24.559Z,931.5
2022-07-27T10:49:30.086Z,929.2
2022-07-27T10:52:24.502Z,966
2022-07-27T10:55:04.901Z,969.9
2022-07-27T10:57:31.009Z,976.9
2022-07-27T11:00:07.274Z,1014.7
2022-07-27T11:02:43.677Z,1039.6
2022-07-27T11:05:58.859Z,1043.8
2022-07-27T11:08:35.194Z,1000.3
2022-07-27T11:10:20.557Z,963.2
2022-07-27T11:12:24.451Z,961.9
2022-07-27T11:15:17.214Z,969.2
2022-07-27T11:18:01.971Z,963.8
2022-07-27T11:20:19.996Z,977.2
2022-07-27T11:22:45.949Z,980.4
2022-07-27T11:25:29.087Z,1006.4
2022-07-27T11:28:14.031Z,1006.7
2022-07-27T11:30:44.657Z,1037.7
2022-07-27T11:33:00.930Z,1064.6
2022-07-27T11:35:05.455Z,591
2022-07-27T11:37:54.063Z,398.4
2022-07-27T11:41:00.174Z,407
2022-07-27T11:42:53.308Z,543
2022-07-27T11:45:01.730Z,1273.9
2022-07-27T11:47:59.056Z,537.1
2022-07-27T11:50:42.047Z,606.7
2022-07-27T11:53:10.970Z,682.2
2022-07-27T11:55:25.561Z,697.6
2022-07-27T11:57:25.784Z,1232
2022-07-27T12:00:15.368Z,1248.3
2022-07-27T12:02:50.483Z,1319.6
2022-07-27T12:05:11.151Z,1377.2
2022-07-27T12:07:17.744Z,1380.4
2022-07-27T12:10:13.305Z,1362.5
2022-07-27T12:12:54.534Z,1326.7
2022-07-27T12:15:44.019Z,1254
2022-07-27T12:17:34.162Z,926.4
2022-07-27T12:19:32.597Z,1270
2022-07-27T12:22:19.901Z,697.9
2022-07-27T12:24:53.404Z,1320.9
2022-07-27T12:27:12.145Z,1259.2
2022-07-27T12:29:17.022Z,649.2
2022-07-27T12:32:10.596Z,603.5
2022-07-27T12:34:50.003Z,577.2
2022-07-27T12:37:15.110Z,610.7
2022-07-27T12:39:26.206Z,643.2
2022-07-27T12:42:26.113Z,626.5
2022-07-27T12:45:11.672Z,650.8
2022-07-27T12:47:42.963Z,638.4
2022-07-27T12:50:00.227Z,661.4
2022-07-27T12:52:03.127Z,654.8
2022-07-27T12:54:55.047Z,744.9
2022-07-27T12:57:46.547Z,832.3
2022-07-27T12:59:56.319Z,911
2022-07-27T13:02:06.785Z,1331.2
2022-07-27T13:05:03.540Z,839.6
2022-07-27T13:07:47.443Z,1190
2022-07-27T13:10:17.020Z,863.3
2022-07-27T13:12:32.278Z,1344
2022-07-27T13:14:33.474Z,681.9
2022-07-27T13:17:23.498Z,548.8
2022-07-27T13:19:59.284Z,1284.4
2022-07-27T13:22:20.914Z,860.8
2022-07-27T13:24:28.192Z,718.4
2022-07-27T13:27:24.466Z,725.4
2022-07-27T13:30:06.619Z,1018.8
2022-07-27T13:32:34.532Z,1174
2022-07-27T13:34:47.969Z,774.4
2022-07-27T13:36:47.358Z,615.6
2022-07-27T13:39:35.708Z,737.2
2022-07-27T13:42:09.620Z,1098.2
2022-07-27T13:44:58.599Z,1025.2
2022-07-27T13:46:34.802Z,999.6
2022-07-27T13:49:29.300Z,971.8
2022-07-27T13:52:09.383Z,967.3
2022-07-27T13:54:35.365Z,906.5
2022-07-27T13:56:47.075Z,935.3
2022-07-27T13:59:47.602Z,917.1
2022-07-27T14:02:34.086Z,903.6
2022-07-27T14:05:06.293Z,891.2
2022-07-27T14:07:27.988Z,878.7
2022-07-27T14:09:27.841Z,885.1
2022-07-27T14:12:20.500Z,852.8
2022-07-27T14:14:58.818Z,871.3
2022-07-27T14:17:22.828Z,838.4
2022-07-27T14:19:32.811Z,840
2022-07-27T14:22:31.692Z,823
2022-07-27T14:25:16.048Z,805.4
2022-07-27T14:27:46.483Z,777.2
2022-07-27T14:30:02.575Z,791.3
2022-07-27T14:32:04.464Z,767.3
2022-07-27T14:34:55.252Z,757.7
2022-07-27T14:37:31.821Z,781.1
2022-07-27T14:39:54.034Z,758.4
2022-07-27T14:42:02.231Z,747.8
2022-07-27T14:44:59.257Z,748.4
2022-07-27T14:50:10.385Z,723.8
2022-07-27T14:52:24.717Z,710
2022-07-27T14:54:24.818Z,693.7
2022-07-27T14:57:13.749Z,706.8
2022-07-27T14:59:48.679Z,692.4
2022-07-27T15:02:09.371Z,662.7
2022-07-27T15:04:15.715Z,643.8
2022-07-27T15:07:10.968Z,628.1
2022-07-27T15:09:52.043Z,618.7
2022-07-27T15:12:18.800Z,619
2022-07-27T15:14:31.515Z,619.5
2022-07-27T15:16:29.972Z,605.7
2022-07-27T15:19:17.298Z,597.7
2022-07-27T15:21:50.061Z,586
2022-07-27T15:24:08.898Z,576.6
2022-07-27T15:26:13.413Z,575.8
2022-07-27T15:29:06.794Z,560
2022-07-27T15:31:46.138Z,561.7
2022-07-27T15:34:11.084Z,541.4
2022-07-27T15:36:31.711Z,538.5
2022-07-27T15:39:21.564Z,526.8
2022-07-27T15:42:07.009Z,514.2
2022-07-27T15:44:38.162Z,500.4
2022-07-27T15:46:55.013Z,487.8
2022-07-27T15:48:57.827Z,475.3
2022-07-27T15:51:49.352Z,462.8
2022-07-27T15:54:30.168Z,451.3
2022-07-27T15:56:49.870Z,444.6
2022-07-27T15:58:58.882Z,429.2
2022-07-27T16:01:56.636Z,409.6
2022-07-27T16:04:40.412Z,387.8
2022-07-27T16:07:09.927Z,374.5
2022-07-27T16:09:25.112Z,364
2022-07-27T16:11:26.237Z,352.9
2022-07-27T16:14:16.260Z,333.2
2022-07-27T16:16:52.150Z,319
2022-07-27T16:19:14.206Z,308.3
2022-07-27T16:21:20.627Z,304
2022-07-27T16:24:16.832Z,296.1
2022-07-27T16:26:58.761Z,277.4
2022-07-27T16:29:26.641Z,265.8
2022-07-27T16:31:40.296Z,260
2022-07-27T16:33:39.482Z,256.8
2022-07-27T16:36:27.853Z,248.4
2022-07-27T16:39:01.845Z,229.8
2022-07-27T16:41:21.514Z,196.6
2022-07-27T16:43:35.660Z,208.8
2022-07-27T16:46:21.688Z,198.3
2022-07-27T16:49:01.850Z,189.1
2022-07-27T16:51:27.652Z,179.1
2022-07-27T16:53:39.438Z,173.2
2022-07-27T16:56:40.086Z,165
2022-07-27T16:59:26.380Z,160.6
2022-07-27T17:01:58.733Z,155.84
2022-07-27T17:04:16.739Z,151.68
2022-07-27T17:06:20.293Z,145.88
2022-07-27T17:09:13.319Z,139.52
2022-07-27T17:11:51.310Z,135.28
2022-07-27T17:14:15.376Z,129.28
2022-07-27T17:16:25.472Z,124.16
2022-07-27T17:19:24.445Z,108.52
2022-07-27T17:22:09.114Z,111.96
2022-07-27T17:24:39.403Z,106
2022-07-27T17:26:55.693Z,105.68
2022-07-27T17:28:57.633Z,108.24
2022-07-27T17:31:48.485Z,107.68
2022-07-27T17:34:25.199Z,106.24
2022-07-27T17:36:47.586Z,102.68
2022-07-27T17:38:55.630Z,101.44
2022-07-27T17:41:52.877Z,98.76
2022-07-27T17:44:35.657Z,95.12
2022-07-27T17:47:04.185Z,90.48
2022-07-27T17:49:18.813Z,90
2022-07-27T17:51:18.598Z,87.12
2022-07-27T17:54:07.666Z,82.92
2022-07-27T17:56:42.376Z,80.18
2022-07-27T17:59:20.289Z,77.6
2022-07-27T18:01:09.476Z,72.48
2022-07-27T18:04:04.619Z,68.6
2022-07-27T18:06:45.917Z,67
2022-07-27T18:09:12.876Z,60.58
2022-07-27T18:11:25.126Z,56.68
2022-07-27T18:13:23.564Z,55.32
2022-07-27T18:16:10.976Z,51.98
2022-07-27T18:18:43.956Z,51.88
2022-07-27T18:21:02.683Z,51.16
2022-07-27T18:23:07.321Z,49.36
2022-07-27T18:26:00.815Z,48.46
2022-07-27T18:28:40.416Z,45.88
2022-07-27T18:31:05.241Z,44.76
2022-07-27T18:33:15.917Z,43.48
2022-07-27T18:36:15.484Z,40.15
2022-07-27T18:39:01.099Z,36.35
2022-07-27T18:41:32.421Z,33.24
2022-07-27T18:43:49.411Z,30.52
2022-07-27T18:45:52.326Z,28.33
2022-07-27T18:48:44.095Z,26.11
2022-07-27T18:51:21.549Z,23.9
2022-07-27T18:53:44.797Z,21.61
2022-07-27T18:55:56.401Z,19.93
2022-07-27T18:58:51.895Z,17.52
2022-07-27T19:01:35.710Z,15.33
2022-07-27T19:04:05.204Z,13.81
2022-07-27T19:06:20.512Z,12.33
2022-07-27T19:08:21.498Z,10.65
2022-07-27T19:11:11.592Z,8.19
2022-07-27T19:13:47.302Z,6.78
2022-07-27T19:16:08.660Z,5.64
2022-07-27T19:18:16.102Z,4.88
2022-07-27T19:21:12.131Z,3.86
2022-07-27T19:23:53.997Z,3.02
2022-07-27T19:26:21.621Z,2.37
2022-07-27T19:28:35.206Z,1.91
2022-07-27T19:30:34.456Z,1.54
2022-07-27T19:33:22.377Z,1.08
2022-07-27T19:35:56.368Z,0.77
2022-07-27T19:38:16.186Z,0.54
2022-07-27T19:40:43.277Z,0.4
2022-07-27T19:43:15.835Z,0.28
2022-07-27T19:45:56.127Z,0.19
2022-07-27T19:48:21.847Z,0.17
2022-07-27T19:50:33.690Z,0.09
2022-07-27T19:53:34.363Z,0.06
2022-07-27T19:56:20.523Z,0.04
2022-07-27T19:58:52.434Z,0.03
2022-07-27T20:01:10.477Z,0.02
2022-07-27T20:06:06.357Z,0.01
2022-07-27T20:13:18.726Z,0
2022-07-27T21:08:09.508Z,0.04
2022-07-27T21:10:51.708Z,0
